Time;durP1;ratioP1;P1;durP2;ratioP2;P2;SDS_P1;SDS_P2;PMS_P1;PMS_P2;Temp;Humidity;BMP_temperature;BMP_pressure;BME280_temperature;BME280_humidity;BME280_pressure;Samples;Min_cycle;Max_cycle;Signal;HPM_P1;HPM_P2
2022/05/27 00:00:41;;;;;;;;;;;;;;;22.91;42.79;99871.41;2067772;28;824;-60
2022/05/27 00:01:41;;;;;;;;;;;;;;;22.89;42.61;99871.53;2067747;28;867;-60
2022/05/27 00:02:41;;;;;;;;;;;;;;;22.88;42.95;99868.91;2067752;28;986;-60
2022/05/27 00:03:41;;;;;;;;;;;;;;;22.88;42.53;99868.91;2067746;28;706;-60
2022/05/27 00:04:41;;;;;;;;;;;;;;;22.87;42.97;99869.84;2067799;28;1991;-60
2022/05/27 00:05:42;;;;;;;;;;;;;;;22.87;42.22;99869.84;2058495;28;939;-60
2022/05/27 00:06:42;;;;;;;;;;;;;;;22.87;43.01;99869.84;2058308;28;859;-60
2022/05/27 00:07:42;;;;;;;;;;;;;;;22.85;42.47;99867.25;2067692;28;864;-60
2022/05/27 00:08:42;;;;;;;;;;;;;;;22.85;42.41;99866.38;2067725;28;951;-60
2022/05/27 00:09:42;;;;;;;;;;;;;;;22.84;43.16;99865.53;2059025;28;1022;-60
2022/05/27 00:10:43;;;;;;;;;;;;;;;22.83;42.59;99866.47;2059007;28;1033;-60
2022/05/27 00:11:43;;;;;;;;;;;;;;;22.82;42.64;99859.34;2067629;28;938;-60
2022/05/27 00:12:43;;;;;;;;;;;;;;;22.82;43.43;99866.56;2067718;28;1010;-60
2022/05/27 00:13:44;;;;;;;;;;;;;;;22.81;43.25;99863.00;2067660;28;637;-60
2022/05/27 00:14:44;;;;;;;;;;;;;;;22.80;42.69;99855.84;2067588;28;1029;-60
2022/05/27 00:15:44;;;;;;;;;;;;;;;22.81;43.57;99854.91;2067632;28;1033;-60
2022/05/27 00:16:44;;;;;;;;;;;;;;;22.79;42.74;99851.41;2067662;28;816;-60
2022/05/27 00:17:44;;;;;;;;;;;;;;;22.79;43.30;99854.13;2067508;28;1218;-60
2022/05/27 00:18:45;;;;;;;;;;;;;;;22.78;42.90;99853.22;2067615;28;785;-60
2022/05/27 00:19:45;;;;;;;;;;;;;;;22.77;42.97;99850.63;2067595;28;864;-60
2022/05/27 00:20:45;;;;;;;;;;;;;;;22.76;42.84;99849.75;2067708;28;954;-60
2022/05/27 00:21:45;;;;;;;;;;;;;;;22.76;43.68;99844.34;2067623;28;823;-60
2022/05/27 00:22:45;;;;;;;;;;;;;;;22.75;42.80;99842.59;2067540;28;1174;-60
2022/05/27 00:23:46;;;;;;;;;;;;;;;22.75;43.48;99848.00;2067551;28;844;-60
2022/05/27 00:24:46;;;;;;;;;;;;;;;22.74;42.94;99837.31;2067495;28;1981;-60
2022/05/27 00:25:47;;;;;;;;;;;;;;;22.74;43.73;99843.56;2067655;28;765;-60
2022/05/27 00:26:47;;;;;;;;;;;;;;;22.74;43.83;99840.00;2067591;28;919;-60
2022/05/27 00:27:47;;;;;;;;;;;;;;;22.73;43.50;99836.44;2067746;28;1037;-60
2022/05/27 00:28:47;;;;;;;;;;;;;;;22.74;43.41;99837.31;2067565;28;848;-60
2022/05/27 00:29:47;;;;;;;;;;;;;;;22.73;43.21;99838.28;2067534;28;994;-60
2022/05/27 00:30:47;;;;;;;;;;;;;;;22.73;43.27;99832.88;2067550;28;773;-60
2022/05/27 00:31:47;;;;;;;;;;;;;;;22.73;43.51;99832.88;2067538;28;899;-60
2022/05/27 00:32:48;;;;;;;;;;;;;;;22.72;43.82;99833.84;2058791;28;954;-60
2022/05/27 00:33:48;;;;;;;;;;;;;;;22.71;43.65;99835.66;2050824;28;1307;-60
2022/05/27 00:34:48;;;;;;;;;;;;;;;22.71;43.23;99832.09;2058803;28;785;-59
2022/05/27 00:35:48;;;;;;;;;;;;;;;22.70;43.88;99831.19;2067447;28;859;-60
2022/05/27 00:36:48;;;;;;;;;;;;;;;22.71;43.37;99837.50;2067470;28;975;-60
2022/05/27 00:37:49;;;;;;;;;;;;;;;22.71;43.42;99832.09;2067417;28;1260;-59
2022/05/27 00:38:49;;;;;;;;;;;;;;;22.69;43.60;99837.56;2067497;28;1002;-60
2022/05/27 00:39:50;;;;;;;;;;;;;;;22.68;44.10;99830.41;2067544;28;1044;-60
2022/05/27 00:40:52;;;;;;;;;;;;;;;22.68;43.57;99833.13;2067591;28;791;-60
2022/05/27 00:41:52;;;;;;;;;;;;;;;22.68;43.32;99837.66;2067494;28;831;-60
2022/05/27 00:42:53;;;;;;;;;;;;;;;22.68;44.00;99834.97;2067454;28;800;-60
2022/05/27 00:43:53;;;;;;;;;;;;;;;22.68;44.11;99837.66;2067489;28;852;-59
2022/05/27 00:44:53;;;;;;;;;;;;;;;22.67;43.68;99838.63;2067334;28;1894;-60
2022/05/27 00:46:13;;;;;;;;;;;;;;;22.67;44.24;99838.63;2067442;28;982;-60
2022/05/27 00:47:15;;;;;;;;;;;;;;;22.65;44.13;99831.47;2042311;29;1060;-60
2022/05/27 00:48:19;;;;;;;;;;;;;;;22.66;43.92;99829.69;2042455;29;1027;-60
2022/05/27 00:49:23;;;;;;;;;;;;;;;22.65;43.40;99827.94;2042440;29;1042;-60
2022/05/27 00:50:26;;;;;;;;;;;;;;;22.65;43.46;99827.94;2042550;29;844;-60
2022/05/27 00:51:29;;;;;;;;;;;;;;;22.64;44.07;99824.34;2042445;29;844;-60
2022/05/27 00:52:31;;;;;;;;;;;;;;;22.64;43.92;99829.75;2042402;29;903;-59
2022/05/27 00:53:37;;;;;;;;;;;;;;;22.63;44.22;99828.00;2042443;29;812;-60
2022/05/27 00:54:37;;;;;;;;;;;;;;;22.65;44.14;99830.63;2042710;29;1053;-60
2022/05/27 00:55:42;;;;;;;;;;;;;;;22.63;43.49;99828.00;2042609;29;1029;-60
2022/05/27 00:56:45;;;;;;;;;;;;;;;22.63;43.70;99825.31;2042459;29;793;-60
2022/05/27 00:57:50;;;;;;;;;;;;;;;22.63;43.78;99824.44;2042446;29;730;-60
2022/05/27 00:58:52;;;;;;;;;;;;;;;22.62;43.54;99826.25;2042377;29;1528;-60
2022/05/27 00:59:55;;;;;;;;;;;;;;;22.62;44.27;99820.88;2034505;29;892;-60
2022/05/27 01:00:55;;;;;;;;;;;;;;;22.61;43.87;99820.97;2034831;29;785;-60
2022/05/27 01:01:56;;;;;;;;;;;;;;;22.62;44.29;99823.56;2042374;29;814;-60
2022/05/27 01:02:58;;;;;;;;;;;;;;;22.62;43.75;99820.00;2042380;29;697;-60
2022/05/27 01:04:01;;;;;;;;;;;;;;;22.61;43.54;99820.97;2042333;29;797;-60
2022/05/27 01:05:02;;;;;;;;;;;;;;;22.61;44.11;99820.97;2042311;29;1895;-60
2022/05/27 01:06:02;;;;;;;;;;;;;;;22.60;43.66;99822.78;2042385;29;1021;-60
2022/05/27 01:07:05;;;;;;;;;;;;;;;22.60;44.28;99821.94;2042321;29;1037;-60
2022/05/27 01:08:07;;;;;;;;;;;;;;;22.61;43.68;99823.66;2042545;29;804;-60
2022/05/27 01:09:08;;;;;;;;;;;;;;;22.60;44.49;99820.09;2042280;29;1073;-60
2022/05/27 01:10:10;;;;;;;;;;;;;;;22.60;44.34;99822.78;2042292;29;895;-60
2022/05/27 01:11:13;;;;;;;;;;;;;;;22.60;44.45;99811.13;2042320;29;855;-60
2022/05/27 01:12:17;;;;;;;;;;;;;;;22.58;43.58;99813.91;2042259;29;1092;-60
2022/05/27 01:13:28;;;;;;;;;;;;;;;22.58;43.68;99816.59;2042319;29;824;-60
2022/05/27 01:14:58;;;;;;;;;;;;;;;22.58;44.53;99813.91;2034393;29;975;-60
2022/05/27 01:16:04;;;;;;;;;;;;;;;22.58;43.68;99816.59;2038353;29;872;-60
2022/05/27 01:17:25;;;;;;;;;;;;;;;22.58;44.49;99816.59;2041915;29;1449;-60
2022/05/27 01:21:50;;;;;;;;;;;;;;;22.55;43.92;99803.28;2034305;29;1294;-60
2022/05/27 01:23:05;;;;;;;;;;;;;;;22.55;44.54;99803.28;2034360;29;902;-60
2022/05/27 01:24:22;;;;;;;;;;;;;;;22.56;43.80;99814.97;2034335;29;941;-60
2022/05/27 01:25:31;;;;;;;;;;;;;;;22.55;43.76;99805.13;2032671;29;1291;-60
2022/05/27 01:26:41;;;;;;;;;;;;;;;22.55;43.92;99810.53;2035371;29;960;-60
2022/05/27 01:27:41;;;;;;;;;;;;;;;22.54;43.90;99806.94;2042201;29;1050;-60
2022/05/27 01:28:44;;;;;;;;;;;;;;;22.55;43.84;99802.44;2042198;29;887;-60
2022/05/27 01:30:03;;;;;;;;;;;;;;;22.54;44.53;99806.94;2042323;29;945;-60
2022/05/27 01:31:10;;;;;;;;;;;;;;;22.52;43.95;99792.66;2034328;29;860;-60
2022/05/27 01:32:19;;;;;;;;;;;;;;;22.52;43.88;99797.22;2034867;29;939;-60
2022/05/27 01:33:39;;;;;;;;;;;;;;;22.52;44.01;99797.22;2042172;29;883;-59
2022/05/27 01:34:47;;;;;;;;;;;;;;;22.52;44.14;99799.91;2042161;29;887;-60
2022/05/27 01:36:06;;;;;;;;;;;;;;;22.52;44.38;99798.06;2042194;29;817;-60
2022/05/27 01:37:12;;;;;;;;;;;;;;;22.52;44.28;99792.66;2042066;29;1113;-60
2022/05/27 01:38:36;;;;;;;;;;;;;;;22.53;44.35;99796.25;2042151;29;988;-60
2022/05/27 01:39:53;;;;;;;;;;;;;;;22.51;43.82;99796.31;2018816;29;1120;-60
2022/05/27 01:40:53;;;;;;;;;;;;;;;22.52;44.66;99794.50;2018671;29;793;-60
2022/05/27 01:41:58;;;;;;;;;;;;;;;22.51;44.83;99793.63;2018568;29;1413;-60
2022/05/27 01:43:02;;;;;;;;;;;;;;;22.50;44.06;99794.59;2018659;29;1059;-60
2022/05/27 01:44:07;;;;;;;;;;;;;;;22.50;44.72;99789.19;2018677;29;802;-60
2022/05/27 01:45:14;;;;;;;;;;;;;;;22.50;44.67;99791.88;2018476;29;1891;-60
2022/05/27 01:46:17;;;;;;;;;;;;;;;22.50;44.27;99789.19;2018664;29;892;-60
2022/05/27 01:47:22;;;;;;;;;;;;;;;22.51;44.05;99793.63;2018586;29;817;-59
2022/05/27 01:48:27;;;;;;;;;;;;;;;22.49;44.78;99785.63;2018597;29;739;-60
2022/05/27 01:49:27;;;;;;;;;;;;;;;22.48;43.98;99786.59;2018619;29;970;-60
2022/05/27 01:50:34;;;;;;;;;;;;;;;22.49;44.16;99791.03;2018596;29;832;-60
2022/05/27 01:51:42;;;;;;;;;;;;;;;22.48;43.91;99789.28;2018517;29;1080;-60
2022/05/27 01:52:42;;;;;;;;;;;;;;;22.48;44.62;99789.28;2018600;29;979;-60
2022/05/27 01:53:42;;;;;;;;;;;;;;;22.48;44.28;99783.88;2018632;29;734;-60
2022/05/27 01:54:51;;;;;;;;;;;;;;;22.48;43.86;99788.41;2018575;29;1066;-60
2022/05/27 01:56:00;;;;;;;;;;;;;;;22.47;44.65;99782.16;2018555;29;929;-60
2022/05/27 01:57:06;;;;;;;;;;;;;;;22.48;44.66;99780.31;2018655;29;904;-60
2022/05/27 01:58:09;;;;;;;;;;;;;;;22.47;44.53;99784.84;2029829;29;942;-60
2022/05/27 01:59:13;;;;;;;;;;;;;;;22.48;44.51;99785.72;2034161;29;967;-60
2022/05/27 02:00:20;;;;;;;;;;;;;;;22.47;44.36;99786.66;2034076;29;1030;-60
2022/05/27 02:01:22;;;;;;;;;;;;;;;22.47;43.99;99782.16;2034097;29;991;-60
2022/05/27 02:02:24;;;;;;;;;;;;;;;22.47;43.97;99786.66;2034055;29;1014;-60
2022/05/27 02:03:28;;;;;;;;;;;;;;;22.46;44.81;99788.50;2034062;29;773;-60
2022/05/27 02:04:33;;;;;;;;;;;;;;;22.46;44.09;99780.41;2033954;29;1982;-60
2022/05/27 02:05:33;;;;;;;;;;;;;;;22.46;44.03;99782.22;2034096;29;796;-60
2022/05/27 02:06:34;;;;;;;;;;;;;;;22.45;44.51;99781.38;2026342;29;1413;-60
2022/05/27 02:07:37;;;;;;;;;;;;;;;22.45;44.82;99778.66;2026233;29;1062;-60
2022/05/27 02:08:45;;;;;;;;;;;;;;;22.46;44.60;99779.53;2033982;29;955;-60
2022/05/27 02:09:51;;;;;;;;;;;;;;;22.45;44.31;99772.38;2034034;29;999;-60
2022/05/27 02:11:02;;;;;;;;;;;;;;;22.45;44.52;99777.78;2034042;29;1111;-60
2022/05/27 02:12:05;;;;;;;;;;;;;;;22.46;44.47;99782.22;2033934;29;1407;-60
2022/05/27 02:13:11;;;;;;;;;;;;;;;22.45;44.90;99775.97;2034023;29;801;-60
2022/05/27 02:14:17;;;;;;;;;;;;;;;22.44;44.52;99774.22;2034009;29;802;-60
2022/05/27 02:15:20;;;;;;;;;;;;;;;22.45;44.80;99777.78;2034023;29;880;-60
2022/05/27 02:16:23;;;;;;;;;;;;;;;22.44;44.27;99774.22;2034103;29;812;-60
2022/05/27 02:17:27;;;;;;;;;;;;;;;22.44;44.27;99770.66;2048148;28;1213;-60
2022/05/27 02:18:37;;;;;;;;;;;;;;;22.44;43.98;99774.22;2058727;28;777;-60
2022/05/27 02:19:56;;;;;;;;;;;;;;;22.43;44.82;99776.97;2058777;28;843;-60
2022/05/27 02:21:01;;;;;;;;;;;;;;;22.44;44.96;99773.34;2058802;28;887;-60
2022/05/27 02:22:01;;;;;;;;;;;;;;;22.43;44.38;99769.75;2058679;28;884;-60
2022/05/27 02:23:05;;;;;;;;;;;;;;;22.43;44.58;99768.88;2058743;28;840;-60
2022/05/27 02:24:25;;;;;;;;;;;;;;;22.43;44.30;99768.88;2058668;28;954;-60
2022/05/27 02:25:29;;;;;;;;;;;;;;;22.42;44.74;99765.31;2058296;28;1075;-59
2022/05/27 02:26:32;;;;;;;;;;;;;;;22.43;44.35;99766.19;2058658;28;986;-60
2022/05/27 02:27:38;;;;;;;;;;;;;;;22.43;44.44;99766.19;2058671;28;780;-60
2022/05/27 02:28:41;;;;;;;;;;;;;;;22.41;44.68;99768.97;2058530;28;859;-60
2022/05/27 02:29:47;;;;;;;;;;;;;;;22.41;44.20;99768.97;2058114;28;1037;-60
2022/05/27 02:30:49;;;;;;;;;;;;;;;22.43;44.56;99768.88;2058692;28;1030;-60
2022/05/27 02:31:52;;;;;;;;;;;;;;;22.42;44.65;99764.44;2058658;28;954;-60
2022/05/27 02:35:39;;;;;;;;;;;;;;;22.41;44.43;99763.59;2058724;28;654;-60
2022/05/27 02:36:44;;;;;;;;;;;;;;;22.41;44.43;99760.88;2058699;28;784;-60
2022/05/27 02:37:46;;;;;;;;;;;;;;;22.41;44.44;99757.31;2057940;28;1268;-60
2022/05/27 02:38:48;;;;;;;;;;;;;;;22.41;44.25;99762.69;2057996;28;796;-60
2022/05/27 02:39:48;;;;;;;;;;;;;;;22.40;44.20;99761.84;2058665;28;756;-60
2022/05/27 02:41:06;;;;;;;;;;;;;;;22.40;44.29;99759.16;2057983;28;1288;-60
2022/05/27 02:42:13;;;;;;;;;;;;;;;22.39;44.85;99754.72;2058191;28;966;-60
2022/05/27 02:43:17;;;;;;;;;;;;;;;22.39;45.12;99759.22;2058648;28;772;-60
2022/05/27 02:44:22;;;;;;;;;;;;;;;22.39;44.26;99757.41;2058588;28;969;-60
2022/05/27 02:45:35;;;;;;;;;;;;;;;22.40;44.86;99756.44;2058702;28;842;-60
2022/05/27 02:46:44;;;;;;;;;;;;;;;22.39;44.25;99760.09;2058583;28;843;-60
2022/05/27 02:47:49;;;;;;;;;;;;;;;22.39;44.48;99759.22;2058638;28;1052;-60
2022/05/27 02:49:03;;;;;;;;;;;;;;;22.39;45.07;99759.22;2057937;28;863;-60
2022/05/27 02:50:17;;;;;;;;;;;;;;;22.38;44.34;99762.88;2058135;28;1022;-60
2022/05/27 02:51:44;;;;;;;;;;;;;;;22.39;45.17;99756.53;2058614;28;776;-60
2022/05/27 02:52:53;;;;;;;;;;;;;;;22.38;44.23;99761.06;2058616;28;1025;-60
2022/05/27 02:54:03;;;;;;;;;;;;;;;22.38;44.99;99758.38;2058623;28;1017;-60
2022/05/27 02:55:24;;;;;;;;;;;;;;;22.38;45.03;99758.38;2058575;28;819;-60
2022/05/27 02:56:46;;;;;;;;;;;;;;;22.38;44.91;99754.78;2041588;29;1071;-60
2022/05/27 02:57:48;;;;;;;;;;;;;;;22.37;44.93;99762.03;2041661;29;972;-60
2022/05/27 02:58:48;;;;;;;;;;;;;;;22.37;44.62;99759.31;2041577;29;1140;-60
2022/05/27 02:59:49;;;;;;;;;;;;;;;22.38;44.27;99757.47;2041638;29;876;-60
2022/05/27 03:00:49;;;;;;;;;;;;;;;22.35;44.47;99697.38;2041633;29;994;-60
2022/05/27 03:01:50;;;;;;;;;;;;;;;22.36;44.33;99700.94;2041607;29;994;-60
2022/05/27 03:02:50;;;;;;;;;;;;;;;22.36;44.37;99707.22;2041602;29;1003;-60
2022/05/27 03:03:50;;;;;;;;;;;;;;;22.37;44.48;99705.38;2041645;29;871;-61
2022/05/27 03:04:52;;;;;;;;;;;;;;;22.37;44.35;99702.66;2041568;29;1883;-60
2022/05/27 03:06:08;;;;;;;;;;;;;;;22.37;44.87;99697.28;2041559;29;974;-60
2022/05/27 03:07:26;;;;;;;;;;;;;;;22.36;44.37;99696.41;2041638;29;1042;-60
2022/05/27 03:08:33;;;;;;;;;;;;;;;22.38;44.00;99789.84;2041554;29;943;-60
2022/05/27 03:09:51;;;;;;;;;;;;;;;22.38;44.81;99765.56;2041616;29;994;-60
2022/05/27 03:11:00;;;;;;;;;;;;;;;22.35;45.16;99759.44;2041613;29;804;-60
2022/05/27 03:12:09;;;;;;;;;;;;;;;22.36;45.17;99749.50;2041705;29;848;-60
2022/05/27 03:13:26;;;;;;;;;;;;;;;22.35;44.66;99740.53;2041791;29;785;-60
2022/05/27 03:14:26;;;;;;;;;;;;;;;22.36;44.86;99746.78;2041603;29;976;-60
2022/05/27 03:15:29;;;;;;;;;;;;;;;22.35;45.10;99740.53;2041600;29;852;-60
2022/05/27 03:16:29;;;;;;;;;;;;;;;22.36;44.40;99744.09;2041564;29;785;-61
2022/05/27 03:17:45;;;;;;;;;;;;;;;22.34;44.37;99736.09;2041437;29;1117;-60
2022/05/27 03:19:06;;;;;;;;;;;;;;;22.35;45.14;99740.53;2041652;29;1006;-60
2022/05/27 03:20:28;;;;;;;;;;;;;;;22.34;44.79;99741.50;2041610;29;1049;-60
2022/05/27 03:21:42;;;;;;;;;;;;;;;22.35;45.16;99745.06;2041606;29;1095;-60
2022/05/27 03:23:01;;;;;;;;;;;;;;;22.34;45.21;99744.19;2041496;29;777;-60
2022/05/27 03:24:10;;;;;;;;;;;;;;;22.34;45.22;99738.81;2041636;29;963;-60
2022/05/27 03:25:29;;;;;;;;;;;;;;;22.33;44.84;99742.47;2041611;29;1919;-60
2022/05/27 03:26:46;;;;;;;;;;;;;;;22.33;45.19;99738.88;2041641;29;836;-60
2022/05/27 03:28:04;;;;;;;;;;;;;;;22.33;44.75;99737.06;2041540;29;1012;-60
2022/05/27 03:29:10;;;;;;;;;;;;;;;22.33;45.15;99734.38;2041611;29;785;-60
2022/05/27 03:30:15;;;;;;;;;;;;;;;22.34;44.88;99737.91;2041564;29;1046;-60
2022/05/27 03:31:23;;;;;;;;;;;;;;;22.33;45.32;99739.75;2041575;29;995;-60
2022/05/27 03:32:41;;;;;;;;;;;;;;;22.33;44.68;99726.28;2041554;29;999;-60
2022/05/27 03:33:41;;;;;;;;;;;;;;;22.32;44.90;99738.03;2041593;29;1081;-60
2022/05/27 03:34:44;;;;;;;;;;;;;;;22.33;44.72;99733.47;2057430;28;1125;-60
2022/05/27 03:35:50;;;;;;;;;;;;;;;22.32;45.01;99740.72;2058404;28;1010;-60
2022/05/27 03:36:56;;;;;;;;;;;;;;;22.33;44.57;99733.47;2058443;28;1002;-60
2022/05/27 03:38:05;;;;;;;;;;;;;;;22.32;44.47;99737.13;2058632;28;749;-60
2022/05/27 03:39:10;;;;;;;;;;;;;;;22.32;45.25;99734.44;2058361;28;1037;-60
2022/05/27 03:40:23;;;;;;;;;;;;;;;22.32;44.82;99735.31;2058807;28;998;-60
2022/05/27 03:41:31;;;;;;;;;;;;;;;22.31;45.43;99733.59;2059241;28;813;-60
2022/05/27 03:42:32;;;;;;;;;;;;;;;22.32;44.65;99732.63;2059431;28;883;-60
2022/05/27 03:43:36;;;;;;;;;;;;;;;22.32;45.12;99734.44;2059234;28;1422;-60
2022/05/27 03:44:36;;;;;;;;;;;;;;;22.31;45.02;99730.00;2059218;28;1882;-60
2022/05/27 03:45:50;;;;;;;;;;;;;;;22.32;45.50;99737.13;2059910;28;918;-60
2022/05/27 03:46:50;;;;;;;;;;;;;;;22.32;45.02;99732.63;2059805;28;957;-60
2022/05/27 03:47:51;;;;;;;;;;;;;;;22.32;45.33;99729.03;2059893;28;851;-60
2022/05/27 03:48:51;;;;;;;;;;;;;;;22.32;45.36;99731.75;2059834;28;788;-60
2022/05/27 03:49:51;;;;;;;;;;;;;;;22.32;45.35;99729.03;2059875;28;864;-60
2022/05/27 03:50:53;;;;;;;;;;;;;;;22.31;44.69;99730.88;2059845;28;878;-60
2022/05/27 03:52:02;;;;;;;;;;;;;;;22.31;44.68;99724.59;2059806;28;867;-60
2022/05/27 03:53:02;;;;;;;;;;;;;;;22.31;44.95;99730.88;2059846;28;871;-60
2022/05/27 03:54:04;;;;;;;;;;;;;;;22.31;44.91;99733.59;2059826;28;982;-60
2022/05/27 03:55:05;;;;;;;;;;;;;;;22.31;44.67;99736.28;2059822;28;856;-60
2022/05/27 03:56:06;;;;;;;;;;;;;;;22.31;45.36;99735.41;2059094;28;1267;-60
2022/05/27 03:57:06;;;;;;;;;;;;;;;22.30;44.54;99723.75;2059117;28;935;-60
2022/05/27 03:58:06;;;;;;;;;;;;;;;22.31;45.48;99730.00;2067188;28;785;-60
2022/05/27 03:59:07;;;;;;;;;;;;;;;22.30;44.85;99729.16;2059816;28;843;-60
2022/05/27 04:00:08;;;;;;;;;;;;;;;22.31;44.68;99736.28;2059764;28;942;-60
2022/05/27 04:01:08;;;;;;;;;;;;;;;22.31;44.84;99730.00;2059910;28;733;-60
2022/05/27 04:02:09;;;;;;;;;;;;;;;23.22;42.83;99726.44;2059787;28;840;-60
2022/05/27 04:03:10;;;;;;;;;;;;;;;24.13;40.59;99717.09;2059736;28;796;-60
2022/05/27 04:04:12;;;;;;;;;;;;;;;24.78;39.60;99718.19;2059021;28;1027;-60
2022/05/27 04:05:15;;;;;;;;;;;;;;;25.31;38.08;99710.00;2059110;28;1894;-60
2022/05/27 04:06:16;;;;;;;;;;;;;;;25.73;37.27;99711.59;2059727;28;836;-60
2022/05/27 04:07:16;;;;;;;;;;;;;;;25.99;36.12;99709.66;2059852;28;836;-60
2022/05/27 04:08:16;;;;;;;;;;;;;;;26.24;35.55;99710.56;2059791;28;994;-60
2022/05/27 04:09:17;;;;;;;;;;;;;;;26.44;34.91;99709.06;2059690;28;781;-60
2022/05/27 04:10:17;;;;;;;;;;;;;;;26.59;34.67;99708.84;2059661;28;886;-60
2022/05/27 04:11:17;;;;;;;;;;;;;;;26.60;34.81;99705.16;2059648;28;804;-60
2022/05/27 04:12:19;;;;;;;;;;;;;;;26.81;34.44;99704.50;2059700;28;789;-60
2022/05/27 04:13:19;;;;;;;;;;;;;;;26.82;34.04;99707.09;2059591;28;1112;-60
2022/05/27 04:14:19;;;;;;;;;;;;;;;26.97;33.86;99699.63;2059648;28;1037;-60
2022/05/27 04:15:19;;;;;;;;;;;;;;;27.31;33.75;99687.94;2059625;28;978;-60
2022/05/27 04:16:20;;;;;;;;;;;;;;;27.41;33.62;99696.19;2059643;28;813;-60
2022/05/27 04:17:32;;;;;;;;;;;;;;;27.57;32.90;99695.84;2063781;28;1063;-60
2022/05/27 04:18:32;;;;;;;;;;;;;;;27.87;32.33;99697.91;2067681;28;800;-60
2022/05/27 04:19:32;;;;;;;;;;;;;;;27.98;31.90;99694.28;2067636;28;1030;-60
2022/05/27 04:20:33;;;;;;;;;;;;;;;28.21;31.66;99692.44;2067604;28;836;-60
2022/05/27 04:21:33;;;;;;;;;;;;;;;28.11;32.31;99688.72;2067843;28;1022;-60
2022/05/27 04:22:33;;;;;;;;;;;;;;;28.10;32.43;99693.28;2067886;28;816;-60
2022/05/27 04:23:33;;;;;;;;;;;;;;;28.40;31.12;99694.47;2067626;28;764;-60
2022/05/27 04:24:34;;;;;;;;;;;;;;;28.73;31.41;99688.97;2067543;28;1918;-60
2022/05/27 04:25:34;;;;;;;;;;;;;;;28.66;31.42;99683.16;2067584;28;764;-60
2022/05/27 04:26:35;;;;;;;;;;;;;;;28.88;30.91;99685.91;2067562;28;971;-60
2022/05/27 04:27:35;;;;;;;;;;;;;;;28.89;30.36;99693.09;2067583;28;970;-60
2022/05/27 04:28:36;;;;;;;;;;;;;;;28.88;30.75;99692.25;2067599;28;988;-60
2022/05/27 04:29:43;;;;;;;;;;;;;;;28.94;30.59;99691.72;2067589;28;1028;-61
2022/05/27 04:30:45;;;;;;;;;;;;;;;29.03;30.82;99687.31;2067543;28;953;-60
2022/05/27 04:31:45;;;;;;;;;;;;;;;29.32;29.60;99680.28;2067637;28;800;-60
2022/05/27 04:32:45;;;;;;;;;;;;;;;29.40;29.42;99686.84;2067487;28;958;-60
2022/05/27 04:33:45;;;;;;;;;;;;;;;29.40;29.81;99685.94;2058849;28;789;-60
2022/05/27 04:34:46;;;;;;;;;;;;;;;29.56;29.82;99686.31;2058858;28;772;-60
2022/05/27 04:35:46;;;;;;;;;;;;;;;29.60;29.62;99686.03;2067559;28;840;-60
2022/05/27 04:36:46;;;;;;;;;;;;;;;29.58;29.63;99678.84;2067529;28;795;-60
2022/05/27 04:37:46;;;;;;;;;;;;;;;29.87;29.18;99685.41;2067393;28;1192;-60
2022/05/27 04:38:46;;;;;;;;;;;;;;;30.11;29.29;99681.44;2067606;28;1033;-60
2022/05/27 04:39:47;;;;;;;;;;;;;;;30.20;28.44;99680.56;2067630;28;757;-60
2022/05/27 04:40:47;;;;;;;;;;;;;;;30.25;29.00;99681.00;2067526;28;828;-60
2022/05/27 04:41:47;;;;;;;;;;;;;;;30.38;28.44;99678.00;2067529;28;922;-60
2022/05/27 04:42:47;;;;;;;;;;;;;;;30.52;28.40;99678.56;2067444;28;1025;-60
2022/05/27 04:43:47;;;;;;;;;;;;;;;30.67;28.04;99681.75;2067438;28;981;-60
2022/05/27 04:44:47;;;;;;;;;;;;;;;30.70;28.09;99681.44;2067453;28;1962;-60
2022/05/27 04:45:48;;;;;;;;;;;;;;;30.66;28.09;99677.28;2067420;28;903;-60
2022/05/27 04:46:48;;;;;;;;;;;;;;;30.84;27.73;99681.00;2058750;28;955;-60
2022/05/27 04:47:49;;;;;;;;;;;;;;;31.03;27.22;99681.97;2058649;28;1307;-60
2022/05/27 04:48:49;;;;;;;;;;;;;;;30.94;27.74;99677.41;2066855;28;883;-60
2022/05/27 04:49:56;;;;;;;;;;;;;;;31.02;27.50;99677.53;2067399;28;875;-60
2022/05/27 04:50:56;;;;;;;;;;;;;;;31.10;27.26;99679.50;2067529;28;824;-60
2022/05/27 04:51:56;;;;;;;;;;;;;;;31.19;27.22;99676.78;2067127;28;818;-60
2022/05/27 04:52:56;;;;;;;;;;;;;;;31.13;27.53;99680.09;2066929;28;962;-60
2022/05/27 04:53:56;;;;;;;;;;;;;;;31.18;27.38;99677.81;2067433;28;757;-60
2022/05/27 04:54:58;;;;;;;;;;;;;;;31.15;27.18;99678.06;2067349;28;1021;-60
2022/05/27 04:55:58;;;;;;;;;;;;;;;31.25;27.68;99675.31;2058875;28;1682;-60
2022/05/27 04:56:59;;;;;;;;;;;;;;;31.29;27.02;99674.00;2058802;28;799;-60
2022/05/27 04:57:59;;;;;;;;;;;;;;;31.37;26.70;99673.25;2067305;28;1061;-60
2022/05/27 04:58:59;;;;;;;;;;;;;;;31.36;26.88;99674.25;2067400;28;909;-60
2022/05/27 05:00:02;;;;;;;;;;;;;;;31.31;26.74;99674.72;2067339;28;773;-60
2022/05/27 05:01:02;;;;;;;;;;;;;;;31.38;26.62;99677.69;2067244;28;962;-60
2022/05/27 05:02:03;;;;;;;;;;;;;;;31.33;26.81;99680.03;2058569;28;809;-60
2022/05/27 05:03:04;;;;;;;;;;;;;;;31.45;26.58;99672.50;2058749;28;918;-60
2022/05/27 05:04:04;;;;;;;;;;;;;;;31.37;26.91;99672.41;2067337;28;953;-60
2022/05/27 05:05:04;;;;;;;;;;;;;;;31.40;26.79;99674.84;2067186;28;1886;-60
2022/05/27 05:06:04;;;;;;;;;;;;;;;31.49;26.62;99669.31;2067330;28;1062;-61
2022/05/27 05:07:07;;;;;;;;;;;;;;;31.62;26.53;99668.09;2067216;28;1005;-60
2022/05/27 05:08:14;;;;;;;;;;;;;;;31.66;26.40;99658.56;2067263;28;764;-60
2022/05/27 05:09:14;;;;;;;;;;;;;;;31.64;26.65;99661.44;2067245;28;808;-60
2022/05/27 05:10:17;;;;;;;;;;;;;;;31.59;26.54;99657.47;2067655;28;1034;-60
2022/05/27 05:11:17;;;;;;;;;;;;;;;31.65;26.35;99657.69;2067270;28;982;-60
2022/05/27 05:12:22;;;;;;;;;;;;;;;31.73;26.14;99659.72;2067198;28;933;-60
2022/05/27 05:13:22;;;;;;;;;;;;;;;31.64;26.14;99658.72;2067260;28;883;-60
2022/05/27 05:14:23;;;;;;;;;;;;;;;31.68;25.86;99662.03;2067289;28;852;-60
2022/05/27 05:15:24;;;;;;;;;;;;;;;31.67;26.15;99643.88;2067357;28;726;-60
2022/05/27 05:16:24;;;;;;;;;;;;;;;31.75;26.00;99654.94;2058487;28;1426;-60
2022/05/27 05:17:24;;;;;;;;;;;;;;;31.89;25.55;99650.81;2058434;28;1390;-60
2022/05/27 05:18:25;;;;;;;;;;;;;;;32.01;25.74;99647.88;2067166;28;769;-60
2022/05/27 05:19:25;;;;;;;;;;;;;;;31.98;25.59;99650.91;2067170;28;772;-60
2022/05/27 05:20:27;;;;;;;;;;;;;;;31.91;25.67;99642.44;2067147;28;1158;-60
2022/05/27 05:21:27;;;;;;;;;;;;;;;31.85;25.83;99657.63;2067132;28;994;-60
2022/05/27 05:22:27;;;;;;;;;;;;;;;32.03;25.66;99654.91;2067144;28;837;-60
2022/05/27 05:23:27;;;;;;;;;;;;;;;31.94;25.77;99644.88;2067126;28;946;-60
2022/05/27 05:24:27;;;;;;;;;;;;;;;32.07;25.11;99637.13;2067068;28;1907;-60
2022/05/27 05:25:28;;;;;;;;;;;;;;;31.94;25.62;99644.88;2058553;28;841;-60
2022/05/27 05:26:28;;;;;;;;;;;;;;;31.97;25.63;99651.94;2058465;28;879;-60
2022/05/27 05:27:29;;;;;;;;;;;;;;;31.88;25.63;99651.84;2067101;28;891;-60
2022/05/27 05:28:29;;;;;;;;;;;;;;;31.94;25.51;99642.13;2067092;28;856;-60
2022/05/27 05:29:29;;;;;;;;;;;;;;;31.90;25.73;99646.19;2067218;28;833;-60
2022/05/27 05:30:29;;;;;;;;;;;;;;;31.97;25.90;99650.03;2067101;28;676;-60
2022/05/27 05:31:29;;;;;;;;;;;;;;;32.01;25.58;99648.72;2067035;28;899;-60
2022/05/27 05:32:29;;;;;;;;;;;;;;;32.15;25.40;99641.81;2058352;28;1014;-60
2022/05/27 05:33:29;;;;;;;;;;;;;;;31.93;25.72;99640.41;2058418;28;994;-60
2022/05/27 05:34:30;;;;;;;;;;;;;;;32.07;25.33;99641.75;2066971;28;860;-60
2022/05/27 05:35:30;;;;;;;;;;;;;;;32.10;25.30;99638.69;2067190;28;742;-60
2022/05/27 05:36:30;;;;;;;;;;;;;;;32.15;25.28;99638.22;2067028;28;978;-60
2022/05/27 05:37:30;;;;;;;;;;;;;;;32.19;25.09;99639.66;2067089;28;851;-60
2022/05/27 05:38:31;;;;;;;;;;;;;;;32.18;25.17;99641.50;2058267;28;1156;-60
2022/05/27 05:39:31;;;;;;;;;;;;;;;32.12;25.32;99636.66;2058369;28;896;-60
2022/05/27 05:40:32;;;;;;;;;;;;;;;32.17;25.31;99634.31;2066395;28;773;-60
2022/05/27 05:41:33;;;;;;;;;;;;;;;32.19;25.17;99635.00;2067319;28;1041;-60
2022/05/27 05:42:33;;;;;;;;;;;;;;;32.24;25.28;99638.16;2058345;28;764;-60
2022/05/27 05:43:33;;;;;;;;;;;;;;;32.26;24.98;99634.38;2058318;28;872;-60
2022/05/27 05:44:34;;;;;;;;;;;;;;;32.05;25.23;99636.44;2066852;28;1967;-60
2022/05/27 05:45:34;;;;;;;;;;;;;;;32.23;24.94;99638.31;2066966;28;879;-60
2022/05/27 05:46:36;;;;;;;;;;;;;;;32.33;24.89;99638.25;2067058;28;884;-60